Time;durP1;ratioP1;P1;durP2;ratioP2;P2;SDS_P1;SDS_P2;PMS_P1;PMS_P2;Temp;Humidity;BMP_temperature;BMP_pressure;BME280_temperature;BME280_humidity;BME280_pressure;Samples;Min_cycle;Max_cycle;Signal;HPM_P1;HPM_P2
2023/10/06 00:01:43;;;;;;;8.63;3.70;;;;;;;;;;5118144;27;20043;-85
2023/10/06 00:04:14;;;;;;;7.82;4.45;;;;;;;;;;5135569;27;20046;-84
2023/10/06 00:06:41;;;;;;;10.38;4.53;;;;;;;;;;5118338;27;20039;-86
2023/10/06 00:09:09;;;;;;;10.57;4.05;;;;;;;;;;5117879;27;20043;-82
2023/10/06 00:11:37;;;;;;;6.65;4.70;;;;;;;;;;5116910;27;20119;-82
2023/10/06 00:14:49;;;;;;;6.85;3.22;;;14.60;1.40;;;;;;5116980;27;20046;-88
2023/10/06 00:16:50;;;;;;;7.20;4.68;;;;;;;;;;5123685;27;20047;-89
2023/10/06 00:19:32;;;;;;;11.57;3.90;;;;;;;;;;5117705;27;20050;-83
2023/10/06 00:22:18;;;;;;;8.45;3.38;;;;;;;;;;5119408;27;20126;-83
2023/10/06 00:24:50;;;;;;;8.52;3.75;;;;;;;;;;5117383;27;20043;-84
2023/10/06 00:27:24;;;;;;;13.13;3.80;;;;;;;;;;5117055;27;20039;-84
2023/10/06 00:29:54;;;;;;;9.23;3.10;;;;;;;;;;5134025;27;20039;-79
2023/10/06 00:32:27;;;;;;;13.30;3.42;;;;;;;;;;5117326;27;20103;-85
2023/10/06 00:34:55;;;;;;;9.20;3.55;;;14.60;3.70;;;;;;5116768;27;20403;-86
2023/10/06 00:37:25;;;;;;;6.75;4.43;;;;;;;;;;5117299;27;20135;-85
2023/10/06 00:39:56;;;;;;;9.43;3.38;;;;;;;;;;5116744;27;20110;-83
2023/10/06 00:42:22;;;;;;;8.27;4.07;;;;;;;;;;5134192;27;20139;-88
2023/10/06 00:44:48;;;;;;;10.88;3.85;;;;;;;;;;5133758;27;20043;-81
2023/10/06 00:47:15;;;;;;;8.73;3.78;;;;;;;;;;5133870;27;20099;-85
2023/10/06 00:49:43;;;;;;;5.47;3.10;;;14.40;1.00;;;;;;5116823;27;20115;-93
2023/10/06 00:52:11;;;;;;;10.98;3.92;;;14.60;3.20;;;;;;5117377;27;20289;-86
2023/10/06 00:54:43;;;;;;;6.18;3.85;;;;;;;;;;5134628;27;20043;-85
2023/10/06 00:57:10;;;;;;;7.38;4.05;;;;;;;;;;5117344;27;20080;-82
2023/10/06 00:59:41;;;;;;;10.10;4.53;;;;;;;;;;5134613;27;20078;-80
2023/10/06 01:02:11;;;;;;;6.88;3.45;;;;;;;;;;5117645;27;20562;-84
2023/10/06 01:04:44;;;;;;;14.63;4.20;;;;;;;;;;5133939;27;20053;-87
2023/10/06 01:07:12;;;;;;;12.70;3.92;;;;;;;;;;5117989;27;20043;-80
2023/10/06 01:09:39;;;;;;;11.02;4.40;;;;;;;;;;5117473;27;20107;-93
2023/10/06 01:12:11;;;;;;;20.88;5.15;;;;;;;;;;5134841;27;20047;-85
2023/10/06 01:14:37;;;;;;;14.35;4.68;;;;;;;;;;5136060;27;20059;-89
2023/10/06 01:17:16;;;;;;;13.73;4.95;;;;;;;;;;5139349;27;20062;-90
2023/10/06 01:19:48;;;;;;;8.73;3.85;;;14.60;1.70;;;;;;5122951;27;20503;-81
2023/10/06 01:22:41;;;;;;;11.20;3.95;;;;;;;;;;5141082;27;20049;-81
2023/10/06 01:25:12;;;;;;;12.38;4.72;;;;;;;;;;5140940;27;20121;-81
2023/10/06 01:27:39;;;;;;;13.48;4.57;;;;;;;;;;5122405;27;20055;-82
2023/10/06 01:30:23;;;;;;;14.43;4.85;;;;;;;;;;5137961;27;20046;-83
2023/10/06 01:32:50;;;;;;;14.20;4.15;;;;;;;;;;5137090;27;20410;-80
2023/10/06 01:35:18;;;;;;;9.50;4.65;;;14.60;14.70;;;;;;5119716;27;20049;-82
2023/10/06 01:37:44;;;;;;;14.82;4.15;;;;;;;;;;5155452;27;20074;-83
2023/10/06 01:42:58;;;;;;;7.60;4.15;;;;;;;;;;5136774;27;20051;-80
2023/10/06 01:45:24;;;;;;;7.97;4.72;;;;;;;;;;5137115;27;20145;-84
2023/10/06 01:47:56;;;;;;;10.60;4.63;;;14.70;14.70;;;;;;5119647;27;20125;-86
2023/10/06 01:50:27;;;;;;;7.45;4.25;;;;;;;;;;5103263;27;20406;-84
2023/10/06 01:52:56;;;;;;;12.45;4.10;;;;;;;;;;5136733;27;20038;-83
2023/10/06 01:55:24;;;;;;;9.02;4.93;;;;;;;;;;5118972;27;20057;-84
2023/10/06 01:57:51;;;;;;;13.98;4.75;;;;;;;;;;5119192;27;20039;-82
2023/10/06 02:00:26;;;;;;;16.83;5.60;;;;;;;;;;5119519;27;20125;-85
2023/10/06 02:02:53;;;;;;;9.07;4.30;;;;;;;;;;5119210;27;20045;-79
2023/10/06 02:05:20;;;;;;;9.20;4.88;;;;;;;;;;5119425;27;20042;-82
2023/10/06 02:07:46;;;;;;;10.27;4.40;;;;;;;;;;5136642;27;20129;-85
2023/10/06 02:10:14;;;;;;;9.10;4.57;;;;;;;;;;5119175;27;20041;-82
2023/10/06 02:12:40;;;;;;;9.60;5.05;;;;;;;;;;5119608;27;20478;-83
2023/10/06 02:15:10;;;;;;;12.57;5.57;;;;;;;;;;5136408;27;20455;-80
2023/10/06 02:17:42;;;;;;;11.73;6.10;;;;;;;;;;5120166;27;20050;-82
2023/10/06 02:20:28;;;;;;;14.77;5.50;;;14.70;1.00;;;;;;5136779;27;20035;-82
2023/10/06 02:22:57;;;;;;;9.80;5.25;;;;;;;;;;5135686;27;20926;-86
2023/10/06 02:25:25;;;;;;;10.20;5.03;;;;;;;;;;5136631;27;20042;-84
2023/10/06 02:27:51;;;;;;;10.75;5.45;;;;;;;;;;5119020;27;20091;-83
2023/10/06 02:30:24;;;;;;;13.48;5.60;;;;;;;;;;5119215;27;20046;-84
2023/10/06 02:32:51;;;;;;;10.98;5.32;;;;;;;;;;5119019;27;20375;-84
2023/10/06 02:35:17;;;;;;;12.50;5.82;;;;;;;;;;5135762;27;20517;-83
2023/10/06 02:37:46;;;;;;;15.35;5.90;;;14.70;1.00;;;;;;5119001;27;20053;-82
2023/10/06 02:40:13;;;;;;;17.45;6.45;;;;;;;;;;5119813;27;20134;-94
2023/10/06 02:42:53;;;;;;;13.50;5.85;;;14.80;3.30;;;;;;5137020;27;20031;-85
2023/10/06 02:45:20;;;;;;;12.88;5.10;;;;;;;;;;5104316;27;20574;-87
2023/10/06 02:47:57;;;;;;;13.50;5.40;;;;;;;;;;5119853;27;20050;-80
2023/10/06 02:50:23;;;;;;;14.52;5.05;;;;;;;;;;5137171;27;20050;-82
2023/10/06 02:52:56;;;;;;;9.15;5.43;;;;;;;;;;5136866;27;20057;-85
2023/10/06 02:55:31;;;;;;;13.07;5.45;;;;;;;;;;5137078;27;20050;-89
2023/10/06 02:57:58;;;;;;;15.38;5.35;;;;;;;;;;5119799;27;20130;-91
2023/10/06 03:03:03;;;;;;;14.63;5.68;;;14.70;4.10;;;;;;5136555;27;20460;-84
2023/10/06 03:05:33;;;;;;;18.00;6.35;;;;;;;;;;5119497;27;20042;-81
2023/10/06 03:08:08;;;;;;;11.40;5.35;;;;;;;;;;5136295;27;20047;-85
2023/10/06 03:10:42;;;;;;;9.30;5.32;;;;;;;;;;5119618;27;20086;-90
2023/10/06 03:13:09;;;;;;;11.48;5.25;;;14.50;17.80;;;;;;5120479;27;20043;-83
2023/10/06 03:15:42;;;;;;;14.18;5.93;;;;;;;;;;5118744;27;20039;-85
2023/10/06 03:18:09;;;;;;;15.18;7.03;;;;;;;;;;5120169;27;20047;-91
2023/10/06 03:20:46;;;;;;;10.05;5.82;;;;;;;;;;5119682;27;20051;-87
2023/10/06 03:26:03;;;;;;;16.27;7.10;;;;;;;;;;5136927;27;20047;-84
2023/10/06 03:28:36;;;;;;;11.77;5.65;;;;;;;;;;5119283;27;20046;-87
2023/10/06 03:31:04;;;;;;;14.15;6.40;;;;;;;;;;5118924;27;20035;-88
2023/10/06 03:33:31;;;;;;;12.73;6.05;;;;;;;;;;5118192;27;20042;-87
2023/10/06 03:35:58;;;;;;;19.30;7.38;;;;;;;;;;5139094;27;20054;-82
2023/10/06 03:46:04;;;;;;;13.23;6.63;;;;;;;;;;5139437;27;20042;-80
2023/10/06 03:48:31;;;;;;;15.38;7.30;;;;;;;;;;5122465;27;20495;-85
2023/10/06 03:50:58;;;;;;;17.98;7.65;;;;;;;;;;5122731;27;20039;-85
2023/10/06 03:53:24;;;;;;;14.73;7.50;;;;;;;;;;5122341;27;20125;-84
2023/10/06 03:55:50;;;;;;;16.13;7.15;;;;;;;;;;5138789;27;20042;-83
2023/10/06 03:58:18;;;;;;;14.80;8.05;;;14.40;8.10;;;;;;5138593;27;20051;-83
2023/10/06 04:00:47;;;;;;;14.40;8.30;;;;;;;;;;5138252;27;20093;-87
2023/10/06 04:03:14;;;;;;;13.18;7.82;;;;;;;;;;5138955;27;20125;-85
2023/10/06 04:05:41;;;;;;;14.63;7.63;;;;;;;;;;5138741;27;20053;-84
2023/10/06 04:08:15;;;;;;;19.50;8.55;;;;;;;;;;5121704;27;20030;-83
2023/10/06 04:10:42;;;;;;;14.38;9.23;;;;;;;;;;5121989;27;20390;-83
2023/10/06 04:13:10;;;;;;;20.27;8.88;;;14.40;7.00;;;;;;5122508;27;20122;-89
2023/10/06 04:15:43;;;;;;;14.73;8.13;;;14.50;12.60;;;;;;5101219;27;20063;-86
2023/10/06 04:18:10;;;;;;;19.25;8.90;;;;;;;;;;5134980;27;20039;-91
2023/10/06 04:20:40;;;;;;;17.63;8.45;;;;;;;;;;5117859;27;20086;-82
2023/10/06 04:23:07;;;;;;;16.45;8.15;;;;;;;;;;5117920;27;20050;-89
2023/10/06 04:25:37;;;;;;;24.85;9.65;;;;;;;;;;5135256;27;20039;-91
2023/10/06 04:28:16;;;;;;;17.83;8.45;;;;;;;;;;5135117;27;20103;-88
2023/10/06 04:30:44;;;;;;;18.23;8.68;;;;;;;;;;5118116;27;20078;-87
2023/10/06 04:33:11;;;;;;;12.57;8.02;;;;;;;;;;5118262;27;20066;-93
2023/10/06 04:35:42;;;;;;;14.82;7.95;;;;;;;;;;5134628;27;20047;-84
2023/10/06 04:38:12;;;;;;;16.80;8.05;;;;;;;;;;5134668;27;20562;-88
2023/10/06 04:40:39;;;;;;;15.55;7.97;;;;;;;;;;5117634;27;20046;-90
2023/10/06 04:43:05;;;;;;;13.25;7.40;;;14.60;14.00;;;;;;5134503;27;20155;-85
2023/10/06 04:45:31;;;;;;;16.50;9.48;;;;;;;;;;5133885;27;20153;-92
2023/10/06 04:48:02;;;;;;;14.95;7.28;;;;;;;;;;5117702;27;20042;-90
2023/10/06 04:50:29;;;;;;;16.02;7.75;;;;;;;;;;5117981;27;20054;-91
2023/10/06 04:52:56;;;;;;;19.95;7.63;;;;;;;;;;5117579;27;20436;-88
2023/10/06 04:55:22;;;;;;;17.23;7.45;;;;;;;;;;5134552;27;20047;-84
2023/10/06 04:57:48;;;;;;;13.70;8.32;;;;;;;;;;5117498;27;20058;-86
2023/10/06 05:00:15;;;;;;;13.30;7.43;;;;;;;;;;5117266;27;20046;-94
2023/10/06 05:02:44;;;;;;;13.57;7.47;;;;;;;;;;5117304;27;20092;-91
2023/10/06 05:05:11;;;;;;;13.95;6.65;;;;;;;;;;5134502;27;20073;-87
2023/10/06 05:07:38;;;;;;;14.88;7.03;;;;;;;;;;5117320;27;20049;-85
2023/10/06 05:10:08;;;;;;;11.70;6.70;;;;;;;;;;5134331;27;20047;-89
2023/10/06 05:12:34;;;;;;;13.82;7.10;;;;;;;;;;5117988;27;20468;-88
2023/10/06 05:15:01;;;;;;;20.33;6.80;;;;;;;;;;5116922;27;20138;-89
2023/10/06 05:17:28;;;;;;;10.32;6.65;;;;;;;;;;5117476;27;20118;-82
2023/10/06 05:19:54;;;;;;;12.70;7.55;;;14.30;28.30;;;;;;5117723;27;20121;-89
2023/10/06 05:22:21;;;;;;;18.30;7.00;;;;;;;;;;5134825;27;20608;-89
2023/10/06 05:24:47;;;;;;;13.55;6.03;;;;;;;;;;5117699;27;20039;-92
2023/10/06 05:27:14;;;;;;;13.23;6.85;;;;;;;;;;5116816;27;20039;-93
2023/10/06 05:29:40;;;;;;;11.93;6.28;;;;;;;;;;5116263;27;20075;-91
2023/10/06 05:32:06;;;;;;;11.40;6.20;;;;;;;;;;5116312;27;20035;-85
2023/10/06 05:34:33;;;;;;;15.65;6.47;;;;;;;;;;5116676;27;20047;-86
2023/10/06 05:37:00;;;;;;;17.35;6.47;;;;;;;;;;5116644;27;20050;-89
2023/10/06 05:39:28;;;;;;;11.55;6.43;;;;;;;;;;5116296;27;20043;-92
2023/10/06 05:41:55;;;;;;;12.10;6.03;;;;;;;;;;5116741;27;20442;-85
2023/10/06 05:44:21;;;;;;;18.42;6.75;;;;;;;;;;5116378;27;20068;-79
2023/10/06 05:46:48;;;;;;;13.50;6.18;;;;;;;;;;5133461;27;20047;-85
2023/10/06 05:49:14;;;;;;;12.77;6.30;;;;;;;;;;5117195;27;20089;-87
2023/10/06 05:51:43;;;;;;;15.93;6.75;;;;;;;;;;5135071;27;20053;-85
2023/10/06 05:54:12;;;;;;;23.75;6.03;;;;;;;;;;5117418;27;20487;-85
2023/10/06 05:56:42;;;;;;;15.13;6.10;;;;;;;;;;5116726;27;20126;-83
2023/10/06 05:59:09;;;;;;;17.10;6.82;;;;;;;;;;5117910;27;20099;-87
2023/10/06 06:01:35;;;;;;;10.73;5.85;;;;;;;;;;5135710;27;20062;-93
2023/10/06 06:04:09;;;;;;;12.40;6.88;;;;;;;;;;5119488;27;20102;-85
2023/10/06 06:06:37;;;;;;;16.85;6.60;;;;;;;;;;5120262;27;20043;-95
2023/10/06 06:09:14;;;;;;;14.35;6.70;;;;;;;;;;5119949;27;20042;-91
2023/10/06 06:11:40;;;;;;;13.95;6.68;;;;;;;;;;5121017;27;20070;-93
2023/10/06 06:14:06;;;;;;;10.05;6.03;;;;;;;;;;5124848;28;20043;-92
2023/10/06 06:16:33;;;;;;;12.48;7.20;;;;;;;;;;5118484;27;20133;-92
2023/10/06 06:19:01;;;;;;;16.75;6.28;;;;;;;;;;5118980;27;20043;-91
2023/10/06 06:21:27;;;;;;;12.07;6.55;;;;;;;;;;5119680;28;20532;-89
2023/10/06 06:23:55;;;;;;;16.88;6.15;;;;;;;;;;5119136;27;20130;-88
2023/10/06 06:26:21;;;;;;;12.73;5.97;;;;;;;;;;5118461;27;20043;-87
2023/10/06 06:28:47;;;;;;;15.50;7.10;;;;;;;;;;5134548;27;20087;-94
2023/10/06 06:31:18;;;;;;;14.88;6.70;;;;;;;;;;5117397;28;20055;-93
2023/10/06 06:33:47;;;;;;;16.67;7.28;;;;;;;;;;5119760;28;20068;-93
2023/10/06 06:36:13;;;;;;;11.65;6.32;;;;;;;;;;5120843;28;20051;-90
2023/10/06 06:38:39;;;;;;;14.23;5.63;;;;;;;;;;5120331;28;20085;-93
2023/10/06 06:41:08;;;;;;;18.67;6.35;;;;;;;;;;5117113;28;20392;-88
2023/10/06 06:43:34;;;;;;;15.63;6.47;;;;;;;;;;5116481;28;20082;-89
2023/10/06 06:46:00;;;;;;;15.02;6.65;;;;;;;;;;5114655;28;20047;-87
2023/10/06 06:48:26;;;;;;;10.85;6.00;;;;;;;;;;5114787;28;20039;-86
2023/10/06 06:50:52;;;;;;;12.27;6.18;;;;;;;;;;5115413;28;20044;-88
2023/10/06 06:53:19;;;;;;;19.35;6.50;;;;;;;;;;5114354;28;20042;-87
2023/10/06 06:55:46;;;;;;;18.52;5.40;;;;;;;;;;5113897;28;20046;-84
2023/10/06 06:58:16;;;;;;;16.73;6.88;;;;;;;;;;5114457;28;20039;-87
2023/10/06 07:00:47;;;;;;;14.68;5.95;;;;;;;;;;5114883;28;20046;-86
2023/10/06 07:03:14;;;;;;;15.68;6.53;;;;;;;;;;5114413;28;20404;-84
2023/10/06 07:05:40;;;;;;;12.38;6.05;;;;;;;;;;5114331;28;20595;-86
2023/10/06 07:08:07;;;;;;;16.25;6.47;;;;;;;;;;5132624;27;20042;-86
2023/10/06 07:10:35;;;;;;;15.43;6.20;;;;;;;;;;5118047;27;20050;-88
2023/10/06 07:13:05;;;;;;;20.27;6.55;;;;;;;;;;5118589;27;20039;-89
2023/10/06 07:15:32;;;;;;;12.02;5.85;;;;;;;;;;5136144;27;20414;-89
2023/10/06 07:17:58;;;;;;;21.13;6.47;;;15.00;22.20;;;;;;5136019;27;20179;-84
2023/10/06 07:20:27;;;;;;;15.52;5.93;;;15.20;23.20;;;;;;5122171;27;20039;-83
2023/10/06 07:22:54;;;;;;;16.75;8.23;;;;;;;;;;5139422;27;20854;-82
2023/10/06 07:25:23;;;;;;;15.38;5.95;;;15.10;20.70;;;;;;5138874;27;20051;-85
2023/10/06 07:27:50;;;;;;;14.65;5.78;;;15.10;18.50;;;;;;5105599;27;20039;-94
2023/10/06 07:30:17;;;;;;;18.05;6.45;;;;;;;;;;5122024;27;20043;-91
2023/10/06 07:32:43;;;;;;;10.50;6.25;;;;;;;;;;5121502;27;20043;-82
2023/10/06 07:35:14;;;;;;;14.13;5.43;;;;;;;;;;5140222;27;20079;-86
2023/10/06 07:37:44;;;;;;;11.60;5.80;;;15.20;23.10;;;;;;5123810;27;20495;-84
2023/10/06 07:40:13;;;;;;;14.75;6.22;;;;;;;;;;5107703;27;20042;-80
2023/10/06 07:42:43;;;;;;;13.32;5.75;;;15.40;23.50;;;;;;5125630;27;20403;-79
2023/10/06 07:45:10;;;;;;;13.10;6.55;;;;;;;;;;5127255;27;20043;-89
2023/10/06 07:47:42;;;;;;;9.25;5.25;;;15.30;24.40;;;;;;5124587;27;20046;-89
2023/10/06 07:50:09;;;;;;;14.40;6.50;;;;;;;;;;5142773;27;20502;-90
2023/10/06 07:52:38;;;;;;;14.95;6.22;;;;;;;;;;5139824;27;20073;-89
2023/10/06 07:55:05;;;;;;;22.98;6.55;;;;;;;;;;5140542;27;20035;-83
2023/10/06 07:57:32;;;;;;;11.00;6.75;;;15.20;37.40;;;;;;5137860;27;20043;-81
2023/10/06 08:00:06;;;;;;;21.27;7.93;;;;;;;;;;5139330;27;20044;-85
2023/10/06 08:02:32;;;;;;;14.15;6.65;;;;;;;;;;5140583;27;20126;-89
2023/10/06 08:04:59;;;;;;;16.65;6.75;;;;;;;;;;5121807;27;20043;-81
2023/10/06 08:07:28;;;;;;;12.40;6.25;;;15.40;20.80;;;;;;5118862;27;20113;-80
2023/10/06 08:09:58;;;;;;;14.18;7.05;;;15.50;24.30;;;;;;5102018;27;20116;-80
2023/10/06 08:12:24;;;;;;;17.38;6.10;;;;;;;;;;5135280;27;20135;-80
2023/10/06 08:14:51;;;;;;;17.17;6.53;;;;;;;;;;5119489;27;20042;-79
2023/10/06 08:17:20;;;;;;;18.05;6.75;;;;;;;;;;5138232;27;20050;-79
2023/10/06 08:19:47;;;;;;;17.80;7.13;;;;;;;;;;5138010;27;20054;-82
2023/10/06 08:22:14;;;;;;;12.38;6.30;;;15.70;22.70;;;;;;5138289;27;20038;-79
2023/10/06 08:24:40;;;;;;;13.88;6.35;;;;;;;;;;5121209;27;20078;-79
2023/10/06 08:27:07;;;;;;;23.50;6.50;;;;;;;;;;5121537;27;20038;-82
2023/10/06 08:29:33;;;;;;;12.02;6.35;;;;;;;;;;5121231;27;20078;-80
2023/10/06 08:32:02;;;;;;;15.07;7.90;;;;;;;;;;5123183;27;20042;-81
2023/10/06 08:34:30;;;;;;;17.08;6.78;;;;;;;;;;5120848;27;20375;-85
2023/10/06 08:36:56;;;;;;;15.18;6.68;;;;;;;;;;5121958;27;20125;-79
2023/10/06 08:39:38;;;;;;;15.13;6.28;;;;;;;;;;5122789;27;20078;-80
2023/10/06 08:42:15;;;;;;;16.02;6.25;;;15.90;37.00;;;;;;5122855;27;20086;-86
2023/10/06 08:44:44;;;;;;;16.38;5.68;;;;;;;;;;5122983;27;20039;-81
2023/10/06 08:47:13;;;;;;;14.70;5.90;;;16.10;22.10;;;;;;5140102;27;20043;-81
2023/10/06 08:49:48;;;;;;;13.95;6.63;;;;;;;;;;5125729;27;20042;-81
2023/10/06 08:52:18;;;;;;;15.18;6.05;;;16.00;21.80;;;;;;5139320;27;20043;-80
2023/10/06 08:54:48;;;;;;;13.43;6.38;;;;;;;;;;5121380;27;20149;-82
2023/10/06 08:57:15;;;;;;;12.90;5.95;;;;;;;;;;5137614;27;20043;-81
2023/10/06 08:59:42;;;;;;;14.57;6.43;;;;;;;;;;5138249;27;20034;-79
2023/10/06 09:02:09;;;;;;;14.80;5.68;;;16.30;20.50;;;;;;5156710;27;20050;-81
2023/10/06 09:04:37;;;;;;;13.13;6.20;;;16.50;20.10;;;;;;5120779;27;20043;-80
2023/10/06 09:07:21;;;;;;;15.35;6.40;;;;;;;;;;5138162;27;20046;-81
2023/10/06 09:09:47;;;;;;;12.60;6.00;;;;;;;;;;5121203;27;20134;-80
2023/10/06 09:12:26;;;;;;;15.10;6.35;;;;;;;;;;5121034;27;20046;-80
2023/10/06 09:14:59;;;;;;;8.20;5.35;;;;;;;;;;5139273;27;20135;-86
2023/10/06 09:17:32;;;;;;;13.13;5.90;;;16.30;18.60;;;;;;5120608;27;20054;-84
2023/10/06 09:19:59;;;;;;;16.67;6.25;;;;;;;;;;5141070;27;20053;-86
2023/10/06 09:22:29;;;;;;;16.67;6.07;;;;;;;;;;5123365;27;20039;-82
2023/10/06 09:25:04;;;;;;;18.55;6.13;;;;;;;;;;5124699;27;20071;-84
2023/10/06 09:27:32;;;;;;;17.13;5.88;;;16.50;18.40;;;;;;5123697;27;20079;-85
2023/10/06 09:30:07;;;;;;;15.55;6.10;;;16.40;18.40;;;;;;5121043;27;20047;-88
2023/10/06 09:32:35;;;;;;;17.20;5.13;;;;;;;;;;5101882;27;20126;-87
2023/10/06 09:35:21;;;;;;;22.67;6.95;;;16.70;12.90;;;;;;5136184;27;20050;-88
2023/10/06 09:37:47;;;;;;;13.50;5.28;;;;;;;;;;5102409;27;20064;-86
2023/10/06 09:40:22;;;;;;;27.25;6.00;;;;;;;;;;5135916;27;20076;-88
2023/10/06 09:42:50;;;;;;;15.25;5.00;;;16.50;16.70;;;;;;5119314;27;20043;-86
2023/10/06 09:45:21;;;;;;;14.38;5.60;;;16.70;18.20;;;;;;5118929;27;20411;-89
2023/10/06 09:48:02;;;;;;;9.30;5.15;;;16.70;29.00;;;;;;5102143;27;20509;-87
2023/10/06 09:50:29;;;;;;;21.65;5.70;;;16.60;15.90;;;;;;5119269;27;20043;-88
2023/10/06 09:53:03;;;;;;;13.07;5.75;;;16.80;17.20;;;;;;5118774;27;20042;-88
2023/10/06 09:55:30;;;;;;;10.80;6.03;;;16.90;16.10;;;;;;5118792;27;20050;-84
2023/10/06 09:57:57;;;;;;;17.25;5.97;;;;;;;;;;5119279;27;20125;-86
2023/10/06 10:00:26;;;;;;;14.85;4.75;;;;;;;;;;5118591;27;20042;-87
2023/10/06 10:02:53;;;;;;;16.20;7.07;;;;;;;;;;5118606;27;20045;-87
2023/10/06 10:05:19;;;;;;;15.32;6.70;;;;;;;;;;5118807;27;20046;-88
2023/10/06 10:07:49;;;;;;;19.45;5.93;;;16.90;12.90;;;;;;5118502;27;20046;-86
2023/10/06 10:10:22;;;;;;;15.75;5.50;;;17.20;14.70;;;;;;5105123;27;20280;-86
2023/10/06 10:13:13;;;;;;;18.17;5.80;;;17.10;7.20;;;;;;5117245;27;20035;-85
2023/10/06 10:15:52;;;;;;;16.25;5.18;;;;;;;;;;5120391;27;20521;-87
2023/10/06 10:18:35;;;;;;;23.02;6.90;;;17.30;16.70;;;;;;5121562;27;20038;-87
2023/10/06 10:21:02;;;;;;;12.93;5.03;;;;;;;;;;5122253;27;20099;-90
2023/10/06 10:23:31;;;;;;;12.45;5.68;;;;;;;;;;5122997;27;20054;-86
2023/10/06 10:26:16;;;;;;;11.77;5.25;;;;;;;;;;5139577;27;20042;-88
2023/10/06 10:28:43;;;;;;;17.00;7.07;;;17.50;9.80;;;;;;5123015;27;20134;-87
2023/10/06 10:31:17;;;;;;;13.95;5.28;;;17.40;25.90;;;;;;5123243;27;20046;-86
2023/10/06 10:33:46;;;;;;;12.00;4.90;;;17.30;13.40;;;;;;5139470;27;20098;-88
2023/10/06 10:36:17;;;;;;;13.52;5.82;;;;;;;;;;5104402;27;20050;-85
2023/10/06 10:38:43;;;;;;;11.60;4.75;;;;;;;;;;5135063;27;20057;-88
2023/10/06 10:41:10;;;;;;;15.88;5.57;;;18.00;11.80;;;;;;5135068;27;20075;-84
2023/10/06 10:43:37;;;;;;;13.50;4.85;;;;;;;;;;5120545;27;20402;-83
2023/10/06 10:46:06;;;;;;;14.65;5.60;;;17.90;10.70;;;;;;5140072;27;20050;-84
2023/10/06 10:48:36;;;;;;;19.63;5.93;;;17.90;10.50;;;;;;5122499;27;20042;-84
2023/10/06 10:51:12;;;;;;;9.77;4.50;;;;;;;;;;5106687;27;20506;-84
2023/10/06 10:53:41;;;;;;;14.75;5.70;;;;;;;;;;5139767;27;20049;-86
2023/10/06 10:56:16;;;;;;;16.50;4.55;;;18.10;9.10;;;;;;5122139;27;20055;-85
2023/10/06 10:58:47;;;;;;;13.48;4.32;;;;;;;;;;5158186;27;20258;-83
2023/10/06 11:01:24;;;;;;;14.75;5.20;;;18.20;8.50;;;;;;5158750;27;20070;-88
2023/10/06 11:04:18;;;;;;;13.07;4.97;;;18.30;1.00;;;;;;5140019;27;20054;-82
2023/10/06 11:06:48;;;;;;;12.27;5.20;;;18.10;5.00;;;;;;5139699;27;20043;-85
2023/10/06 11:09:26;;;;;;;12.70;6.22;;;18.50;16.50;;;;;;5139666;27;20038;-86
2023/10/06 11:11:58;;;;;;;14.02;6.47;;;18.20;1.00;;;;;;5122450;27;20156;-86
2023/10/06 11:14:26;;;;;;;13.20;6.35;;;18.40;1.00;;;;;;5157969;27;20394;-83
2023/10/06 11:16:52;;;;;;;22.17;6.05;;;;;;;;;;5157404;27;20060;-80
2023/10/06 11:19:19;;;;;;;16.60;7.05;;;;;;;;;;5158118;27;20035;-83
2023/10/06 11:21:48;;;;;;;17.15;5.35;;;;;;;;;;5122638;27;20042;-84
2023/10/06 11:24:28;;;;;;;15.18;4.25;;;;;;;;;;5122360;27;20043;-83
2023/10/06 11:26:55;;;;;;;9.15;4.28;;;;;;;;;;5122009;27;20406;-87
2023/10/06 11:29:31;;;;;;;15.95;5.97;;;18.80;1.00;;;;;;5121888;27;20125;-81
2023/10/06 11:32:00;;;;;;;17.00;4.70;;;18.80;1.00;;;;;;5139130;27;20074;-81
2023/10/06 11:34:26;;;;;;;18.17;4.60;;;;;;;;;;5138967;27;20088;-80
2023/10/06 11:36:53;;;;;;;18.35;4.90;;;;;;;;;;5139062;27;20186;-80
2023/10/06 11:39:23;;;;;;;14.85;4.03;;;;;;;;;;5138763;27;20452;-83
2023/10/06 11:41:50;;;;;;;9.80;3.38;;;;;;;;;;5139129;27;20114;-81
2023/10/06 11:44:16;;;;;;;11.90;4.45;;;;;;;;;;5122275;27;20039;-81
2023/10/06 11:46:58;;;;;;;12.75;4.32;;;;;;;;;;5122281;27;20447;-80
2023/10/06 11:49:25;;;;;;;9.80;3.67;;;;;;;;;;5139409;27;20119;-87
2023/10/06 11:51:51;;;;;;;14.55;4.28;;;;;;;;;;5122465;27;20124;-85
2023/10/06 11:54:17;;;;;;;14.90;4.53;;;18.70;1.00;;;;;;5138141;27;20038;-84
2023/10/06 11:56:49;;;;;;;12.27;3.80;;;19.10;1.00;;;;;;5120824;27;20049;-83
2023/10/06 11:59:20;;;;;;;12.77;3.85;;;18.90;1.00;;;;;;5120889;27;20095;-83
2023/10/06 12:01:47;;;;;;;9.93;3.70;;;;;;;;;;5138152;27;20034;-82
2023/10/06 12:04:30;;;;;;;9.95;3.47;;;19.00;1.00;;;;;;5121144;27;20146;-85
2023/10/06 12:07:01;;;;;;;11.75;3.60;;;19.30;1.00;;;;;;5104858;27;20051;-81
2023/10/06 12:09:33;;;;;;;20.42;3.90;;;19.20;1.00;;;;;;5138044;27;20377;-85
2023/10/06 12:12:01;;;;;;;11.65;3.22;;;;;;;;;;5120620;27;20095;-82
2023/10/06 12:14:27;;;;;;;10.27;3.58;;;;;;;;;;5137656;27;20042;-83
2023/10/06 12:16:56;;;;;;;11.02;4.35;;;;;;;;;;5120546;27;20482;-81
2023/10/06 12:19:25;;;;;;;12.95;4.05;;;;;;;;;;5120348;27;20047;-81
2023/10/06 12:21:52;;;;;;;15.02;4.50;;;;;;;;;;5137922;27;20046;-82
2023/10/06 12:24:18;;;;;;;18.90;3.40;;;;;;;;;;5137882;27;20079;-81
2023/10/06 12:26:46;;;;;;;12.25;4.10;;;;;;;;;;5137506;27;20050;-84
2023/10/06 12:29:17;;;;;;;;;;;19.80;1.00;;;;;;5122337;27;20122;-81
2023/10/06 12:31:47;;;;;;;14.10;3.17;;;19.50;1.00;;;;;;5120295;27;20373;-82
2023/10/06 12:34:15;;;;;;;10.02;3.25;;;;;;;;;;5120315;27;20187;-81
2023/10/06 12:36:48;;;;;;;15.68;3.85;;;19.50;1.00;;;;;;5120122;27;20129;-81
2023/10/06 12:39:16;;;;;;;12.77;3.27;;;19.40;1.00;;;;;;5137213;27;20414;-84
2023/10/06 12:41:46;;;;;;;16.23;3.45;;;;;;;;;;5120002;27;20668;-82
2023/10/06 12:44:16;;;;;;;13.65;4.20;;;19.30;1.00;;;;;;5120077;27;20095;-83
2023/10/06 12:46:42;;;;;;;15.20;3.30;;;;;;;;;;5102844;27;20047;-81
2023/10/06 12:49:08;;;;;;;10.52;3.30;;;;;;;;;;5119822;27;20045;-82
2023/10/06 12:51:36;;;;;;;7.45;2.80;;;19.20;1.00;;;;;;5120385;27;20042;-81
2023/10/06 12:54:03;;;;;;;18.58;4.00;;;19.30;1.00;;;;;;5119770;27;20050;-83
2023/10/06 12:56:30;;;;;;;14.68;3.70;;;19.10;1.00;;;;;;5102784;27;20051;-81
2023/10/06 12:58:56;;;;;;;8.60;3.13;;;;;;;;;;5119354;27;20115;-82
2023/10/06 13:01:25;;;;;;;11.55;3.63;;;19.10;1.00;;;;;;5120157;27;20052;-81
2023/10/06 13:03:58;;;;;;;16.45;3.75;;;;;;;;;;5120634;27;20400;-82
2023/10/06 13:06:24;;;;;;;12.25;5.03;;;;;;;;;;5119563;27;20043;-85
2023/10/06 13:08:50;;;;;;;8.90;3.30;;;;;;;;;;5119259;27;20138;-84
2023/10/06 13:11:18;;;;;;;10.35;3.22;;;;;;;;;;5119397;27;20050;-85
2023/10/06 13:13:49;;;;;;;18.42;3.30;;;19.00;1.00;;;;;;5119908;27;20039;-82
2023/10/06 13:16:16;;;;;;;15.18;4.22;;;19.00;1.00;;;;;;5116595;27;21027;-82
2023/10/06 13:18:42;;;;;;;9.85;3.92;;;;;;;;;;5136361;27;20518;-82
2023/10/06 13:21:08;;;;;;;11.35;3.55;;;;;;;;;;5119134;27;20490;-81
2023/10/06 13:23:35;;;;;;;15.13;3.80;;;19.20;1.00;;;;;;5136578;27;20042;-84
2023/10/06 13:26:02;;;;;;;8.85;3.38;;;;;;;;;;5136055;27;20046;-83
2023/10/06 13:28:28;;;;;;;13.60;3.70;;;;;;;;;;5136514;27;20392;-81
2023/10/06 13:30:54;;;;;;;14.57;4.13;;;;;;;;;;5136446;27;20058;-84
2023/10/06 13:33:25;;;;;;;6.90;2.92;;;;;;;;;;5154755;27;20483;-83
2023/10/06 13:35:52;;;;;;;8.95;3.65;;;;;;;;;;5135877;27;20051;-85
2023/10/06 13:38:19;;;;;;;7.55;2.42;;;;;;;;;;5119340;27;20070;-84
2023/10/06 13:40:45;;;;;;;18.90;3.42;;;;;;;;;;5118571;27;20046;-83
2023/10/06 13:43:14;;;;;;;13.90;3.67;;;19.00;1.00;;;;;;5118924;27;20117;-84
2023/10/06 13:45:43;;;;;;;13.48;3.47;;;;;;;;;;5118844;27;20056;-82
2023/10/06 13:48:11;;;;;;;13.27;4.55;;;18.90;1.00;;;;;;5118870;27;20042;-83
2023/10/06 13:50:39;;;;;;;15.00;3.70;;;;;;;;;;5136190;27;20074;-81
2023/10/06 13:53:11;;;;;;;10.95;4.20;;;18.90;1.00;;;;;;5119464;27;20521;-82
2023/10/06 13:55:37;;;;;;;19.02;3.33;;;;;;;;;;5118736;27;20045;-81
2023/10/06 13:58:08;;;;;;;6.72;3.35;;;;;;;;;;5122557;27;20421;-80
2023/10/06 14:00:40;;;;;;;9.77;3.72;;;;;;;;;;5123097;27;20054;-88
2023/10/06 14:03:13;;;;;;;13.50;3.38;;;;;;;;;;5140326;27;20086;-84
2023/10/06 14:05:41;;;;;;;18.17;4.43;;;19.00;1.00;;;;;;5123856;27;20050;-86
2023/10/06 14:08:13;;;;;;;9.45;3.53;;;18.60;1.00;;;;;;5123228;27;20035;-89
2023/10/06 14:10:40;;;;;;;12.25;3.50;;;;;;;;;;5107661;27;20047;-85
2023/10/06 14:13:11;;;;;;;6.90;2.72;;;18.80;1.00;;;;;;5124921;27;20046;-81
2023/10/06 14:15:41;;;;;;;12.27;3.70;;;18.80;1.00;;;;;;5124197;27;20053;-81
2023/10/06 14:18:13;;;;;;;10.23;3.28;;;18.60;1.00;;;;;;5136446;27;20066;-86
2023/10/06 14:20:45;;;;;;;12.90;3.78;;;18.40;1.00;;;;;;5119558;27;20043;-87
2023/10/06 14:23:12;;;;;;;23.05;3.83;;;18.70;1.00;;;;;;5118948;28;20479;-90
2023/10/06 14:25:40;;;;;;;17.08;3.75;;;18.70;1.00;;;;;;5137339;27;20043;-94
2023/10/06 14:28:09;;;;;;;12.00;3.67;;;;;;;;;;5121823;27;20045;-91
2023/10/06 14:30:41;;;;;;;15.90;3.28;;;18.70;1.00;;;;;;5139991;27;20423;-90